General Hazi Aslanov — UEJC — position and weather

sailwx.info

Track history (hours):
 
Tides and Currents Weather Stations Pressure Air Temp Water Temp Dewpoint Dewpoint Depression Visibility Wind Speed Wind Dir Waves Ship Positions

General Hazi Aslanov

Last reported at 2017-Dec-15 18:10 UTC. Time now 2017-Dec-16 01:38 UTC.
Position N 45°30' E 036°50'.

Length 139 m; draft 3.6 m.

Type: Tanker. MMSI: 273430870.

Date/timePositionNaut miles runAvg speedWind from/ knotsBaromVisibWave heightAir tempDewpointWater temp
2017-Dec-15 18:10N 45°30' E 036°50'1 3.3
2017-Dec-15 18:00N 45°29' E 036°50'3 5.4
2017-Dec-15 17:27N 45°27' E 036°47'2 5.6
2017-Dec-15 17:00N 45°26' E 036°44'3 5.5
2017-Dec-15 16:30N 45°23' E 036°42'0 0.5
2017-Dec-15 15:59N 45°23' E 036°41'0 0.1
2017-Dec-15 15:29N 45°23' E 036°41'0 0.1
2017-Dec-15 14:56N 45°23' E 036°42'0 0.1
2017-Dec-15 14:29N 45°23' E 036°42'0 0.0
2017-Dec-15 13:59N 45°23' E 036°42'0 0.0
2017-Dec-15 13:29N 45°23' E 036°42'0 0.0
2017-Dec-15 12:59N 45°23' E 036°42'0 0.0
2017-Dec-15 12:29N 45°23' E 036°42'0 0.1
2017-Dec-15 11:59N 45°23' E 036°42'0 0.0
2017-Dec-15 11:29N 45°23' E 036°42'0 0.0
2017-Dec-15 10:59N 45°23' E 036°42'0 0.0
2017-Dec-15 10:29N 45°23' E 036°42'0 0.0
2017-Dec-15 09:59N 45°23' E 036°42'0 0.0
2017-Dec-15 09:29N 45°23' E 036°42'0 0.2
2017-Dec-15 09:01N 45°23' E 036°42'2 3.8
2017-Dec-15 08:31N 45°25' E 036°43'2 4.6
2017-Dec-15 07:59N 45°27' E 036°45'2 0.9
2017-Dec-15 05:33N 45°28' E 036°47'0 0.2
2017-Dec-15 05:21N 45°28' E 036°47'0 0.1
2017-Dec-15 05:00N 45°28' E 036°47'0 0.1
2017-Dec-15 04:27N 45°28' E 036°47'1 0.1
2017-Dec-14 14:12N 45°28' E 036°46'1 6.5
2017-Dec-14 14:00N 45°27' E 036°45'  
Track history (hours):
 
Tides and Currents Weather Stations Pressure Air Temp Water Temp Dewpoint Dewpoint Depression Visibility Wind Speed Wind Dir Waves Ship Positions

General Hazi Aslanov

Last reported at 2017-Dec-15 18:10 UTC. Time now 2017-Dec-16 01:38 UTC.
Position N 45°30' E 036°50'.

Length 139 m; draft 3.6 m.

Type: Tanker. MMSI: 273430870.

Date/timePositionNaut miles runAvg speedWind from/ knotsBaromVisibWave heightAir tempDewpointWater temp
2017-Dec-15 18:10N 45°30' E 036°50'1 3.3
2017-Dec-15 18:00N 45°29' E 036°50'3 5.4
2017-Dec-15 17:27N 45°27' E 036°47'2 5.6
2017-Dec-15 17:00N 45°26' E 036°44'3 5.5
2017-Dec-15 16:30N 45°23' E 036°42'0 0.5
2017-Dec-15 15:59N 45°23' E 036°41'0 0.1
2017-Dec-15 15:29N 45°23' E 036°41'0 0.1
2017-Dec-15 14:56N 45°23' E 036°42'0 0.1
2017-Dec-15 14:29N 45°23' E 036°42'0 0.0
2017-Dec-15 13:59N 45°23' E 036°42'0 0.0
2017-Dec-15 13:29N 45°23' E 036°42'0 0.0
2017-Dec-15 12:59N 45°23' E 036°42'0 0.0
2017-Dec-15 12:29N 45°23' E 036°42'0 0.1
2017-Dec-15 11:59N 45°23' E 036°42'0 0.0
2017-Dec-15 11:29N 45°23' E 036°42'0 0.0
2017-Dec-15 10:59N 45°23' E 036°42'0 0.0
2017-Dec-15 10:29N 45°23' E 036°42'0 0.0
2017-Dec-15 09:59N 45°23' E 036°42'0 0.0
2017-Dec-15 09:29N 45°23' E 036°42'0 0.2
2017-Dec-15 09:01N 45°23' E 036°42'2 3.8
2017-Dec-15 08:31N 45°25' E 036°43'2 4.6
2017-Dec-15 07:59N 45°27' E 036°45'2 0.9
2017-Dec-15 05:33N 45°28' E 036°47'0 0.2
2017-Dec-15 05:21N 45°28' E 036°47'0 0.1
2017-Dec-15 05:00N 45°28' E 036°47'0 0.1
2017-Dec-15 04:27N 45°28' E 036°47'1 0.1
2017-Dec-14 14:12N 45°28' E 036°46'1 6.5
2017-Dec-14 14:00N 45°27' E 036°45'  

Dump ship's entire track history